KMVN/MVN METAR and TAF weather

Enter ICAO airport designator
Station Type Date Time Source
KMVN METAR 2020/10/20 17:56 UTC NOAA

KMVN 201756Z AUTO VRB04KT 9SM -RA OVC006 11/11 A3015 RMK AO2 LTG DSNT SW RAB10 SLP216 P0000 60000 T01110106 10111 20089 58011


Station Type Date Time Source
KMVN Decoded METAR 2020/10/20 17:56 UTC NOAA

Mount Vernon, Mount Vernon Airport, IL, United States (KMVN) 38-19N 088-52W
Oct 20, 2020 - 01:56 PM EDT / 2020.10.20 1756 UTC
Wind: Variable at 5 MPH (4 KT):0
Visibility: 9 mile(s):0
Sky conditions: overcast
Weather: light rain; Lightning observed
Precipitation last hour: A trace
Temperature: 52.0 F (11.1 C)
Dew Point: 51.1 F (10.6 C)
Relative Humidity: 96%
Pressure (altimeter): 30.15 in. Hg (1020 hPa)
Pressure tendency: 0.03 inches (1.1 hPa) lower than three hours ago
ob: KMVN 201756Z AUTO VRB04KT 9SM -RA OVC006 11/11 A3015 RMK AO2 LTG DSNT SW RAB10 SLP216 P0000 60000 T01110106 10111 20089 58011
cycle: 18

Station Type Date Time Source
KMVN TAF 2020/10/20 18:21 UTC NOAA

TAF KMVN 201720Z 2018/2118 12007KT 6SM BR VCSH OVC006
TEMPO 2018/2022 4SM -SHRA BR OVC004
FM202200 15007KT 5SM BR OVC009
FM210100 19005KT P6SM BKN009
FM210600 21008KT P6SM VCTS BKN011CB
FM211100 33006KT P6SM BKN008

Example: see airport list